createdAt,value
2023-09-14T00:06:38.998Z,67.87
2023-09-14T00:17:07.966Z,67.51
2023-09-14T00:27:35.675Z,67.54
2023-09-14T00:38:03.960Z,67.61
2023-09-14T00:48:34.070Z,67.50
2023-09-14T00:59:04.106Z,67.46
2023-09-14T01:09:32.459Z,67.66
2023-09-14T01:20:09.063Z,67.63
2023-09-14T01:30:38.649Z,67.40
2023-09-14T01:41:07.131Z,67.24
2023-09-14T01:51:35.004Z,67.12
2023-09-14T02:02:03.038Z,67.46
2023-09-14T02:12:30.647Z,67.69
2023-09-14T02:22:58.597Z,67.74
2023-09-14T02:33:26.322Z,67.43
2023-09-14T02:43:54.274Z,67.39
2023-09-14T02:54:22.388Z,67.43
2023-09-14T03:04:49.930Z,67.38
2023-09-14T03:15:17.680Z,67.51
2023-09-14T03:25:46.382Z,67.40
2023-09-14T03:36:14.083Z,67.55
2023-09-14T03:46:42.063Z,67.28
2023-09-14T03:57:15.969Z,67.42
2023-09-14T04:07:43.696Z,67.66
2023-09-14T04:18:11.312Z,67.75
2023-09-14T04:28:39.099Z,67.74
2023-09-14T04:39:07.351Z,67.79
2023-09-14T04:49:35.011Z,67.90
2023-09-14T05:00:02.657Z,67.94
2023-09-14T05:10:30.424Z,67.83
2023-09-14T05:20:58.100Z,67.66
2023-09-14T05:31:25.896Z,67.60
2023-09-14T05:41:53.638Z,67.90
2023-09-14T05:52:21.402Z,66.97
2023-09-14T06:02:49.450Z,67.10
2023-09-14T06:13:19.664Z,67.54
2023-09-14T06:23:55.999Z,67.50
2023-09-14T06:34:23.943Z,67.26
2023-09-14T06:44:53.766Z,67.08
2023-09-14T06:55:22.008Z,66.82
2023-09-14T07:05:49.791Z,66.83
2023-09-14T07:16:17.779Z,66.82
2023-09-14T07:26:45.992Z,66.93
2023-09-14T07:37:13.713Z,67.09
2023-09-14T07:47:41.817Z,66.93
2023-09-14T07:58:09.839Z,67.04
2023-09-14T08:08:38.402Z,66.85
2023-09-14T08:19:06.453Z,66.54
2023-09-14T08:29:34.228Z,66.51
2023-09-14T08:40:02.292Z,65.77
2023-09-14T08:50:32.227Z,65.14
2023-09-14T09:01:00.743Z,64.95
2023-09-14T09:11:30.846Z,65.15
2023-09-14T09:21:59.701Z,65.20
2023-09-14T09:32:27.513Z,64.73
2023-09-14T09:42:59.128Z,64.21
2023-09-14T09:53:29.330Z,64.05
2023-09-14T10:03:57.528Z,63.45
2023-09-14T10:14:30.220Z,63.66
2023-09-14T10:24:59.831Z,62.86
2023-09-14T10:35:29.913Z,62.42
2023-09-14T10:46:02.200Z,61.40
2023-09-14T10:56:32.848Z,61.51
2023-09-14T11:07:02.887Z,60.61
2023-09-14T11:17:42.923Z,60.31
2023-09-14T11:28:22.117Z,60.86
2023-09-14T11:38:52.859Z,61.28
2023-09-14T11:59:57.124Z,61.31
2023-09-14T12:10:26.324Z,61.88
2023-09-14T12:20:55.204Z,61.79
2023-09-14T12:31:24.139Z,61.70
2023-09-14T12:41:53.832Z,61.71
2023-09-14T12:52:25.057Z,62.25
2023-09-14T13:02:54.254Z,61.41
2023-09-14T13:13:22.721Z,61.71
2023-09-14T13:23:51.931Z,62.89
2023-09-14T13:34:19.810Z,64.11
2023-09-14T13:44:47.935Z,64.43
2023-09-14T13:55:17.169Z,65.18
2023-09-14T14:05:45.327Z,65.39
2023-09-14T14:16:13.377Z,65.15
2023-09-14T14:26:44.929Z,64.61
2023-09-14T14:37:13.998Z,64.41
2023-09-14T14:47:41.689Z,64.57
2023-09-14T14:58:09.963Z,65.60
2023-09-14T15:08:37.949Z,65.91
2023-09-14T15:19:05.784Z,66.15
2023-09-14T15:29:34.694Z,65.25
2023-09-14T15:40:04.006Z,63.88
2023-09-14T15:50:32.944Z,63.03
2023-09-14T16:01:01.441Z,62.37
2023-09-14T16:11:29.402Z,62.61
2023-09-14T16:21:57.335Z,63.00
2023-09-14T16:32:25.860Z,63.89
2023-09-14T16:42:53.778Z,64.04
2023-09-14T16:53:22.830Z,64.30
2023-09-14T17:03:51.574Z,64.45
2023-09-14T17:14:20.683Z,64.50
2023-09-14T17:24:48.658Z,63.11
2023-09-14T17:35:18.034Z,62.87
2023-09-14T17:45:45.979Z,62.99
2023-09-14T17:56:13.703Z,63.27
2023-09-14T18:06:41.401Z,63.57
2023-09-14T18:17:09.776Z,63.21
2023-09-14T18:27:37.828Z,63.36
2023-09-14T18:38:06.451Z,63.29
2023-09-14T18:48:34.236Z,63.74
2023-09-14T19:09:33.659Z,64.12
2023-09-14T19:20:05.816Z,63.98
2023-09-14T19:30:35.811Z,63.84
2023-09-14T19:41:03.953Z,63.51
2023-09-14T19:51:32.349Z,63.39
2023-09-14T20:02:00.150Z,63.47
2023-09-14T20:12:28.515Z,63.19
2023-09-14T20:22:56.255Z,63.33
2023-09-14T20:33:23.847Z,63.52
2023-09-14T20:43:51.577Z,63.48
2023-09-14T20:54:20.958Z,63.60
2023-09-14T21:04:48.792Z,63.15
2023-09-14T21:15:16.721Z,63.06
2023-09-14T21:25:44.296Z,63.16
2023-09-14T21:36:12.283Z,63.09
2023-09-14T21:46:39.839Z,63.47
2023-09-14T21:57:09.075Z,64.20
2023-09-14T22:07:36.768Z,63.25
2023-09-14T22:18:06.330Z,62.99
2023-09-14T22:28:34.206Z,63.32
2023-09-14T22:39:01.901Z,63.56
2023-09-14T22:49:29.510Z,63.49
2023-09-14T22:59:57.714Z,63.84
2023-09-14T23:10:25.856Z,64.42
2023-09-14T23:20:54.207Z,64.86
2023-09-14T23:31:23.576Z,64.71
2023-09-14T23:41:51.558Z,64.68
2023-09-14T23:52:22.328Z,64.47
